Time;durP1;ratioP1;P1;durP2;ratioP2;P2;SDS_P1;SDS_P2;PMS_P1;PMS_P2;Temp;Humidity;BMP_temperature;BMP_pressure;BME280_temperature;BME280_humidity;BME280_pressure;Samples;Min_cycle;Max_cycle;Signal;HPM_P1;HPM_P2
2022/09/09 00:00:27;;;;;;;8.00;4.82;;;;;;;-145.23;100.00;58621.06;4934379;28;20242;-57
2022/09/09 00:03:00;;;;;;;5.50;5.00;;;;;;;-145.23;100.00;58621.06;4959009;28;20313;-56
2022/09/09 00:05:33;;;;;;;5.32;4.90;;;;;;;-145.23;100.00;58621.06;4947017;28;20231;-56
2022/09/09 00:08:03;;;;;;;5.25;4.90;;;;;;;-145.23;100.00;58621.06;4926817;28;20394;-56
2022/09/09 00:10:31;;;;;;;5.05;4.65;;;;;;;-145.23;100.00;58621.06;4934965;28;20243;-56
2022/09/09 00:13:03;;;;;;;5.55;5.15;;;;;;;-145.23;100.00;58621.06;4943053;28;20243;-57
2022/09/09 00:15:33;;;;;;;4.75;4.38;;;;;;;-145.23;100.00;58621.06;4939646;28;20262;-57
2022/09/09 00:18:09;;;;;;;8.20;5.45;;;;;;;-145.23;100.00;58621.06;4933507;28;20240;-56
2022/09/09 00:20:43;;;;;;;6.00;5.40;;;;;;;-145.23;100.00;58621.06;4943177;28;20227;-57
2022/09/09 00:23:14;;;;;;;5.18;4.75;;;;;;;-145.23;100.00;58621.06;4944985;28;20342;-57
2022/09/09 00:25:43;;;;;;;7.22;4.68;;;;;;;-145.23;100.00;58621.06;4941710;28;20228;-57
2022/09/09 00:28:15;;;;;;;5.55;5.15;;;;;;;-145.23;100.00;58621.06;4933625;28;20251;-56
2022/09/09 00:30:42;;;;;;;6.57;5.90;;;;;;;-145.23;100.00;58621.06;4936846;28;20243;-56
2022/09/09 00:33:14;;;;;;;6.32;5.72;;;;;;;-145.23;100.00;58621.06;4927620;28;20246;-57
2022/09/09 00:35:45;;;;;;;5.50;5.10;;;;;;;-145.23;100.00;58621.06;4933145;28;20255;-56
2022/09/09 00:38:15;;;;;;;6.25;5.75;;;;;;;-145.23;100.00;58621.06;4940662;28;20243;-57
2022/09/09 00:40:47;;;;;;;7.63;5.93;;;;;;;-145.23;100.00;58621.06;4938000;28;20294;-56
2022/09/09 00:43:27;;;;;;;6.70;6.15;;;;;;;-145.23;100.00;58621.06;4947755;28;20249;-56
2022/09/09 00:46:16;;;;;;;5.00;4.60;;;;;;;-145.23;100.00;58621.06;4946752;28;20310;-56
2022/09/09 00:48:50;;;;;;;6.68;5.88;;;;;;;-145.23;100.00;58621.06;4940231;28;20239;-56
2022/09/09 00:51:26;;;;;;;6.57;6.03;;;;;;;-145.23;100.00;58621.06;4946983;28;20381;-56
2022/09/09 00:54:05;;;;;;;6.28;5.68;;;;;;;-145.23;100.00;58621.06;4930226;28;20245;-56
2022/09/09 00:56:36;;;;;;;6.38;5.78;;;;;;;-145.23;100.00;58621.06;4942773;28;20234;-54
2022/09/09 00:59:13;;;;;;;6.35;5.85;;;;;;;-145.23;100.00;58621.06;4946997;28;20326;-55
2022/09/09 01:01:40;;;;;;;6.43;5.90;;;;;;;-145.23;100.00;58621.06;4946788;28;20295;-56
2022/09/09 01:04:11;;;;;;;5.72;5.22;;;;;;;-145.23;100.00;58621.06;4938881;28;20306;-56
2022/09/09 01:06:39;;;;;;;5.72;5.32;;;;;;;-145.23;100.00;58621.06;4943866;28;20262;-55
2022/09/09 01:09:12;;;;;;;6.60;6.05;;;;;;;-145.23;100.00;58621.06;4948400;28;20248;-56
2022/09/09 01:11:47;;;;;;;8.68;6.07;;;;;;;-145.23;100.00;58621.06;4939665;28;20307;-56
2022/09/09 01:14:20;;;;;;;5.95;5.45;;;;;;;-145.23;100.00;58621.06;4931982;28;20265;-55
2022/09/09 01:16:47;;;;;;;5.68;5.28;;;;;;;-145.23;100.00;58621.06;4940700;28;20235;-55
2022/09/09 01:19:19;;;;;;;6.70;6.13;;;;;;;-145.23;100.00;58621.06;4942431;28;20235;-55
2022/09/09 01:21:53;;;;;;;5.93;5.47;;;;;;;-145.23;100.00;58621.06;4937224;28;20243;-56
2022/09/09 01:24:25;;;;;;;7.32;6.72;;;;;;;-145.23;100.00;58621.06;4939637;28;20721;-56
2022/09/09 01:26:56;;;;;;;6.72;6.03;;;;;;;-145.23;100.00;58621.06;4941239;28;20234;-56
2022/09/09 01:29:23;;;;;;;6.32;5.72;;;;;;;-145.23;100.00;58621.06;4940355;28;20699;-57
2022/09/09 01:31:54;;;;;;;7.10;6.50;;;;;;;-145.23;100.00;58621.06;4937750;28;20663;-56
2022/09/09 01:34:22;;;;;;;6.40;5.90;;;;;;;-145.23;100.00;58621.06;4939919;28;20250;-56
2022/09/09 01:36:53;;;;;;;5.57;5.18;;;;;;;-145.23;100.00;58621.06;4947098;28;20247;-56
2022/09/09 01:39:19;;;;;;;6.13;5.63;;;;;;;-145.23;100.00;58621.06;4946043;28;20239;-56
2022/09/09 01:41:46;;;;;;;5.93;5.38;;;;;;;-145.23;100.00;58621.06;4941020;28;20316;-56
2022/09/09 01:44:14;;;;;;;6.03;5.53;;;;;;;-145.23;100.00;58621.06;4938417;28;20239;-56
2022/09/09 01:46:40;;;;;;;6.43;5.93;;;;;;;-145.23;100.00;58621.06;4945211;28;20239;-57
2022/09/09 01:49:08;;;;;;;6.55;5.95;;;;;;;-145.23;100.00;58621.06;4946615;28;20243;-56
2022/09/09 01:51:35;;;;;;;6.45;5.95;;;;;;;-145.23;100.00;58621.06;4941178;28;20250;-56
2022/09/09 01:54:02;;;;;;;7.03;6.43;;;;;;;-145.23;100.00;58621.06;4937766;28;20744;-55
2022/09/09 01:56:39;;;;;;;7.93;6.55;;;;;;;-145.23;100.00;58621.06;4943054;28;20373;-58
2022/09/09 01:59:25;;;;;;;6.20;5.65;;;;;;;-145.23;100.00;58621.06;4935739;28;20573;-56
2022/09/09 02:02:00;;;;;;;7.63;6.85;;;;;;;-145.23;100.00;58621.06;4940899;28;20246;-55
2022/09/09 02:04:38;;;;;;;6.32;5.72;;;;;;;-145.23;100.00;58621.06;4946141;28;20235;-56
2022/09/09 02:07:07;;;;;;;6.88;6.35;;;;;;;-145.23;100.00;58621.06;4938333;28;20238;-57
2022/09/09 02:09:34;;;;;;;6.25;5.75;;;;;;;-145.23;100.00;58621.06;4947546;28;20235;-57
2022/09/09 02:12:07;;;;;;;7.50;6.07;;;;;;;-145.23;100.00;58621.06;4937910;28;20242;-56
2022/09/09 02:14:38;;;;;;;6.88;6.05;;;;;;;14.60;100.00;100542.34;4936021;28;20281;-56
2022/09/09 02:17:10;;;;;;;7.63;6.05;;;;;;;14.58;100.00;100548.53;4939772;28;20290;-56
2022/09/09 02:19:38;;;;;;;6.35;5.75;;;;;;;14.50;100.00;100551.34;4941146;28;20609;-56
2022/09/09 02:22:05;;;;;;;6.47;5.97;;;;;;;14.59;100.00;100556.41;4934372;28;20236;-56
2022/09/09 02:24:34;;;;;;;7.20;6.50;;;;;;;14.53;100.00;100554.78;4940659;28;20227;-57
2022/09/09 02:27:03;;;;;;;7.25;6.50;;;;;;;14.56;100.00;100556.47;4940963;28;21193;-56
2022/09/09 02:29:32;;;;;;;6.72;6.10;;;;;;;14.48;100.00;100555.75;4929045;28;20255;-56
2022/09/09 02:32:02;;;;;;;6.38;5.78;;;;;;;14.42;100.00;100555.84;4939494;28;20342;-57
2022/09/09 02:34:30;;;;;;;6.13;5.53;;;;;;;14.38;100.00;100551.53;4937009;28;20255;-57
2022/09/09 02:36:59;;;;;;;7.15;6.38;;;;;;;14.60;100.00;100549.34;4936458;28;20339;-56
2022/09/09 02:39:26;;;;;;;9.25;5.78;;;;;;;14.46;100.00;100549.59;4946504;28;20286;-56
2022/09/09 02:41:53;;;;;;;6.57;5.97;;;;;;;14.41;100.00;100548.84;4945311;28;20227;-56
2022/09/09 02:44:20;;;;;;;7.00;5.72;;;;;;;14.44;100.00;100551.41;4935555;28;20310;-56
2022/09/09 02:46:59;;;;;;;6.22;5.72;;;;;;;14.46;100.00;100554.88;4943184;28;20242;-55
2022/09/09 02:49:32;;;;;;;6.30;5.80;;;;;;;14.46;100.00;100560.16;4945579;28;20734;-55
2022/09/09 02:52:02;;;;;;;6.05;5.53;;;;;;;14.38;100.00;100548.91;4943114;28;20262;-56
2022/09/09 02:54:31;;;;;;;5.72;5.32;;;;;;;14.34;100.00;100550.72;4936379;28;20257;-55
2022/09/09 02:57:02;;;;;;;7.32;5.63;;;;;;;14.32;100.00;100549.91;4945232;28;20315;-55
2022/09/09 02:59:30;;;;;;;8.50;6.10;;;;;;;14.30;100.00;100547.28;4942425;28;20227;-56
2022/09/09 03:01:56;;;;;;;6.00;5.50;;;;;;;14.24;100.00;100549.16;4942769;28;20318;-56
2022/09/09 03:04:24;;;;;;;6.82;5.97;;;;;;;14.22;100.00;100548.34;4936055;28;20250;-56
2022/09/09 03:06:52;;;;;;;6.85;6.32;;;;;;;14.18;100.00;100550.16;4941902;28;20331;-56
2022/09/09 03:09:18;;;;;;;6.22;5.72;;;;;;;14.16;100.00;100551.09;4936818;28;20330;-56
2022/09/09 03:11:45;;;;;;;7.07;6.13;;;;;;;14.22;100.00;100562.41;4939509;28;20242;-56
2022/09/09 03:14:11;;;;;;;5.47;5.07;;;;;;;14.16;100.00;100556.38;4937468;28;20239;-56
2022/09/09 03:16:38;;;;;;;5.75;5.13;;;;;;;14.13;100.00;100554.63;4935944;28;20286;-57
2022/09/09 03:19:06;;;;;;;6.72;6.00;;;;;;;14.16;100.00;100567.78;4941772;28;20240;-56
2022/09/09 03:21:32;;;;;;;5.88;5.38;;;;;;;14.15;100.00;100566.06;4943797;28;20330;-56
2022/09/09 03:24:03;;;;;;;5.90;5.40;;;;;;;14.14;100.00;100574.84;4942347;28;20299;-55
2022/09/09 03:26:29;;;;;;;6.05;5.45;;;;;;;14.17;100.00;100585.38;4939438;28;20242;-56
2022/09/09 03:28:56;;;;;;;6.70;6.15;;;;;;;14.23;100.00;100582.63;4932294;28;20346;-56
2022/09/09 03:31:22;;;;;;;5.68;5.20;;;;;;;14.18;100.00;100581.84;4938640;28;20685;-56
2022/09/09 03:33:49;;;;;;;5.30;4.57;;;;;;;14.17;100.00;100566.88;4946569;28;20598;-56
2022/09/09 03:36:16;;;;;;;5.63;5.13;;;;;;;14.11;100.00;100572.31;4946403;28;20270;-57
2022/09/09 03:38:42;;;;;;;6.10;5.60;;;;;;;14.20;100.00;100569.47;4945858;28;20342;-56
2022/09/09 03:41:10;;;;;;;5.95;5.38;;;;;;;14.24;100.00;100581.72;4939091;28;20277;-55
2022/09/09 03:43:37;;;;;;;5.75;5.30;;;;;;;14.13;100.00;100578.41;4946713;28;20261;-56
2022/09/09 03:46:04;;;;;;;6.03;5.53;;;;;;;14.12;100.00;100575.81;4946319;28;20266;-56
2022/09/09 03:48:30;;;;;;;5.45;4.95;;;;;;;14.09;100.00;100572.31;4941332;28;20240;-56
2022/09/09 03:51:00;;;;;;;5.80;4.97;;;;;;;14.07;100.00;100573.22;4944623;28;20235;-56
2022/09/09 03:53:27;;;;;;;5.72;5.22;;;;;;;14.11;100.00;100580.22;4943470;28;20712;-56
2022/09/09 03:55:55;;;;;;;6.20;5.60;;;;;;;14.09;100.00;100576.72;4939866;28;20270;-56
2022/09/09 03:58:23;;;;;;;5.63;5.13;;;;;;;14.08;100.00;100572.34;4942762;28;20352;-56
2022/09/09 04:00:54;;;;;;;5.57;4.93;;;;;;;14.01;100.00;100576.00;4941932;28;20263;-56
2022/09/09 04:03:22;;;;;;;6.03;5.53;;;;;;;14.04;100.00;100579.44;4937884;28;20240;-57
2022/09/09 04:05:51;;;;;;;6.00;4.97;;;;;;;13.98;100.00;100581.31;4938621;28;20282;-56
2022/09/09 04:08:18;;;;;;;4.97;4.50;;;;;;;14.06;100.00;100577.63;4944760;28;20323;-56
2022/09/09 04:10:45;;;;;;;5.72;5.15;;;;;;;14.04;100.00;100568.03;4936490;28;20236;-56
2022/09/09 04:13:13;;;;;;;6.80;5.15;;;;;;;14.01;100.00;100576.88;4934988;28;20314;-57
2022/09/09 04:15:42;;;;;;;6.93;5.40;;;;;;;13.90;100.00;100570.91;4944052;28;20257;-56
2022/09/09 04:18:09;;;;;;;5.32;4.82;;;;;;;13.92;100.00;100573.50;4943579;28;20277;-56
2022/09/09 04:20:35;;;;;;;5.78;5.00;;;;;;;14.01;100.00;100573.34;4941319;28;20249;-57
2022/09/09 04:23:02;;;;;;;6.90;4.53;;;;;;;13.91;100.00;100574.41;4939943;28;20591;-57
2022/09/09 04:25:28;;;;;;;6.50;4.68;;;;;;;13.93;100.00;100576.09;4942556;28;20714;-56
2022/09/09 04:27:56;;;;;;;6.68;4.47;;;;;;;14.02;100.00;100577.72;4941392;28;20330;-56
2022/09/09 04:30:22;;;;;;;6.13;4.78;;;;;;;13.92;100.00;100576.16;4938845;28;20570;-56
2022/09/09 04:32:50;;;;;;;4.90;4.50;;;;;;;14.03;100.00;100582.09;4936962;28;20610;-56
2022/09/09 04:35:18;;;;;;;5.85;5.05;;;;;;;13.95;100.00;100584.88;4925484;28;20266;-56
2022/09/09 04:37:45;;;;;;;6.63;4.57;;;;;;;14.06;100.00;100587.34;4928795;28;20261;-56
2022/09/09 04:40:11;;;;;;;4.85;4.20;;;;;;;14.05;100.00;100585.59;4938122;28;20275;-56
2022/09/09 04:42:39;;;;;;;5.78;5.25;;;;;;;14.12;100.00;100587.22;4942894;28;20243;-57
2022/09/09 04:45:06;;;;;;;5.13;4.72;;;;;;;13.98;100.00;100590.13;4944521;28;20302;-56
2022/09/09 04:47:35;;;;;;;4.97;4.57;;;;;;;13.97;100.00;100588.38;4935374;28;20232;-68
2022/09/09 04:50:02;;;;;;;5.57;4.88;;;;;;;13.97;100.00;100591.03;4940168;28;20248;-56
2022/09/09 04:52:29;;;;;;;4.47;3.97;;;;;;;13.90;100.00;100588.47;4940328;28;20306;-56
2022/09/09 04:54:56;;;;;;;5.75;5.05;;;;;;;13.85;100.00;100594.72;4943789;28;20247;-57
2022/09/09 04:57:22;;;;;;;9.43;5.45;;;;;;;13.89;100.00;100598.19;4942254;28;20249;-57
2022/09/09 04:59:49;;;;;;;4.72;4.32;;;;;;;13.81;100.00;100600.94;4932220;28;20243;-57
2022/09/09 05:02:15;;;;;;;7.10;4.28;;;;;;;13.81;100.00;100608.88;4937088;28;20236;-57
2022/09/09 05:04:42;;;;;;;4.43;4.03;;;;;;;13.88;100.00;100606.13;4944593;28;20235;-56
2022/09/09 05:07:10;;;;;;;5.22;4.72;;;;;;;13.84;100.00;100606.19;4944764;28;20250;-59
2022/09/09 05:09:36;;;;;;;5.97;4.30;;;;;;;13.86;100.00;100611.41;4941661;28;20242;-56
2022/09/09 05:12:04;;;;;;;4.82;4.35;;;;;;;14.11;100.00;100613.63;4939026;28;20341;-58
2022/09/09 05:14:30;;;;;;;3.88;3.58;;;;;;;13.99;100.00;100615.59;4945718;28;20243;-57
2022/09/09 05:16:57;;;;;;;4.75;4.28;;;;;;;13.98;100.00;100611.22;4944667;28;20235;-56
2022/09/09 05:19:24;;;;;;;4.72;4.28;;;;;;;14.02;100.00;100604.13;4942652;28;20246;-57
2022/09/09 05:21:50;;;;;;;3.75;3.45;;;;;;;13.98;100.00;100607.72;4938258;28;20245;-56
2022/09/09 05:24:18;;;;;;;4.65;4.28;;;;;;;14.02;100.00;100604.13;4946845;28;20243;-57
2022/09/09 05:26:45;;;;;;;4.30;3.90;;;;;;;14.06;100.00;100603.16;4947030;28;20263;-56
2022/09/09 05:29:12;;;;;;;4.35;3.97;;;;;;;14.05;100.00;100604.09;4943457;28;20323;-56
2022/09/09 05:31:38;;;;;;;7.45;4.07;;;;;;;14.15;100.00;100605.66;4940453;28;20235;-56
2022/09/09 05:34:05;;;;;;;4.68;4.28;;;;;;;14.14;100.00;100609.19;4948438;28;20279;-56
2022/09/09 05:36:32;;;;;;;7.40;4.18;;;;;;;14.42;100.00;100606.03;4948799;28;20235;-56
2022/09/09 05:38:58;;;;;;;3.90;3.50;;;;;;;14.31;100.00;100614.16;4939357;28;20270;-56
2022/09/09 05:41:27;;;;;;;3.42;3.17;;;;;;;14.29;100.00;100606.28;4939070;28;20235;-57
2022/09/09 05:43:53;;;;;;;3.83;3.45;;;;;;;14.38;100.00;100607.00;4937056;28;20249;-56
2022/09/09 05:46:21;;;;;;;6.05;3.47;;;;;;;14.35;100.00;100601.78;4948184;28;20245;-57
2022/09/09 05:48:50;;;;;;;4.10;3.75;;;;;;;14.35;100.00;100599.13;4946539;28;20761;-54
2022/09/09 05:51:18;;;;;;;4.05;3.65;;;;;;;14.35;100.00;100605.28;4938125;28;20250;-55
2022/09/09 05:53:45;;;;;;;6.25;3.72;;;;;;;14.40;100.00;100607.84;4942784;28;20255;-56
2022/09/09 05:56:14;;;;;;;4.82;3.95;;;;;;;14.63;100.00;100615.34;4946828;28;20264;-56
2022/09/09 05:58:43;;;;;;;3.92;3.55;;;;;;;14.67;100.00;100620.56;4942299;28;20236;-56
2022/09/09 06:01:11;;;;;;;3.83;3.53;;;;;;;14.73;100.00;100620.44;4942095;28;20246;-57
2022/09/09 06:03:39;;;;;;;4.40;4.00;;;;;;;14.94;100.00;100623.53;4933471;28;20238;-57
2022/09/09 06:06:07;;;;;;;4.13;3.55;;;;;;;15.02;100.00;100613.66;4945307;28;20692;-57
2022/09/09 06:08:34;;;;;;;6.95;4.43;;;;;;;15.01;100.00;100622.50;4950023;28;20255;-55
2022/09/09 06:11:05;;;;;;;3.70;3.35;;;;;;;15.22;100.00;100632.63;4944278;28;20726;-56
2022/09/09 06:13:32;;;;;;;4.22;3.67;;;;;;;15.19;100.00;100637.97;4947455;28;20231;-55
2022/09/09 06:16:00;;;;;;;8.38;4.00;;;;;;;15.19;100.00;100642.41;4946983;28;20791;-55
2022/09/09 06:18:27;;;;;;;8.90;4.40;;;;;;;15.15;100.00;100641.59;4949461;28;20338;-56
2022/09/09 06:20:57;;;;;;;4.78;3.47;;;;;;;15.16;100.00;100645.09;4942451;28;20252;-56
2022/09/09 06:23:25;;;;;;;4.53;2.97;;;;;;;15.06;100.00;100638.28;4949131;28;20688;-56
2022/09/09 06:25:51;;;;;;;6.05;3.90;;;;;;;15.00;100.00;100639.28;4943097;28;20235;-57
2022/09/09 06:28:18;;;;;;;5.07;3.45;;;;;;;15.03;100.00;100636.59;4940618;28;20239;-56
2022/09/09 06:30:45;;;;;;;6.50;4.57;;;;;;;15.18;100.00;100632.75;4943259;28;20720;-56
2022/09/09 06:33:13;;;;;;;3.53;3.22;;;;;;;15.28;100.00;100632.50;4949613;28;20290;-56
2022/09/09 06:35:39;;;;;;;4.60;3.17;;;;;;;15.45;100.00;100645.34;4945788;28;20247;-56
2022/09/09 06:38:06;;;;;;;3.85;2.90;;;;;;;15.41;100.00;100648.09;4947599;28;20249;-56
2022/09/09 06:40:33;;;;;;;4.45;3.55;;;;;;;15.47;100.00;100653.25;4944394;28;20259;-56
2022/09/09 06:43:01;;;;;;;3.65;2.75;;;;;;;15.38;100.00;100656.13;4940893;28;20235;-55
2022/09/09 06:45:28;;;;;;;4.47;2.58;;;;;;;15.28;100.00;100658.09;4946440;28;20805;-56
2022/09/09 06:47:56;;;;;;;3.83;3.42;;;;;;;15.50;100.00;100653.19;4953587;28;20509;-57
2022/09/09 06:50:24;;;;;;;4.20;3.42;;;;;;;15.36;100.00;100656.13;4946418;28;21836;-56
2022/09/09 06:52:51;;;;;;;5.00;3.70;;;;;;;15.30;100.00;100655.41;4942010;28;20234;-55
2022/09/09 06:55:18;;;;;;;3.53;3.22;;;;;;;15.33;100.00;100656.19;4951561;28;20344;-56
2022/09/09 06:57:44;;;;;;;6.97;4.00;;;;;;;15.49;100.00;100656.75;4947467;28;20239;-56
2022/09/09 07:00:13;;;;;;;9.73;4.68;;;;;;;15.54;100.00;100649.56;4956056;28;20333;-56
2022/09/09 07:02:40;;;;;;;14.50;5.07;;;;;;;15.70;100.00;100645.69;4939723;28;20295;-55
2022/09/09 07:05:08;;;;;;;5.68;3.53;;;;;;;15.77;100.00;100645.56;4946820;28;20254;-55
2022/09/09 07:07:36;;;;;;;2.72;2.47;;;;;;;15.84;100.00;100647.16;4946413;28;20239;-56
2022/09/09 07:10:04;;;;;;;4.45;2.72;;;;;;;15.95;100.00;100647.75;4947792;28;20353;-56
2022/09/09 07:12:31;;;;;;;2.90;2.60;;;;;;;16.03;100.00;100648.44;4939190;28;20331;-55
2022/09/09 07:14:57;;;;;;;4.55;2.72;;;;;;;16.25;100.00;100648.78;4947236;28;20582;-56
2022/09/09 07:17:24;;;;;;;2.92;2.67;;;;;;;16.26;100.00;100657.59;4946373;28;20239;-56
2022/09/09 07:19:50;;;;;;;4.78;2.60;;;;;;;16.32;100.00;100652.09;4946151;28;20239;-59
2022/09/09 07:22:17;;;;;;;4.05;2.00;;;;;;;16.44;100.00;100642.06;4947508;28;20243;-57
2022/09/09 07:24:45;;;;;;;6.40;2.67;;;;;;;16.61;100.00;100646.91;4944799;28;20270;-56
2022/09/09 07:27:11;;;;;;;3.90;2.42;;;;;;;16.73;100.00;100652.78;4937907;28;20252;-57
2022/09/09 07:29:38;;;;;;;5.45;2.53;;;;;;;16.84;100.00;100648.94;4947339;28;20223;-57
2022/09/09 07:32:05;;;;;;;2.38;1.85;;;;;;;16.94;100.00;100649.56;4946541;28;20242;-57
2022/09/09 07:34:32;;;;;;;3.28;2.50;;;;;;;17.41;100.00;100657.91;4931232;28;20243;-56
2022/09/09 07:36:58;;;;;;;4.47;2.28;;;;;;;17.45;100.00;100653.38;4941861;28;20270;-56
2022/09/09 07:39:25;;;;;;;3.50;1.92;;;;;;;17.50;100.00;100659.41;4939165;28;20247;-57
2022/09/09 07:41:54;;;;;;;2.78;1.83;;;;;;;17.60;100.00;100656.41;4953989;28;20223;-56
2022/09/09 07:44:22;;;;;;;6.20;2.17;;;;;;;17.91;100.00;100659.94;4938900;28;20674;-56
2022/09/09 07:46:49;;;;;;;2.38;1.45;;;;;;;17.92;100.00;100661.66;4948124;28;20236;-56
2022/09/09 07:49:17;;;;;;;4.32;2.15;;;;;;;18.11;100.00;100663.69;4952755;28;20235;-56
2022/09/09 07:51:45;;;;;;;2.75;1.60;;;;;;;18.11;100.00;100674.31;4944038;28;20258;-56
2022/09/09 07:54:13;;;;;;;4.57;2.08;;;;;;;18.12;100.00;100670.72;4938849;28;20249;-56
2022/09/09 07:56:41;;;;;;;3.75;1.60;;;;;;;18.18;100.00;100669.66;4944370;28;20243;-56
2022/09/09 07:59:10;;;;;;;3.28;1.75;;;;;;;18.12;100.00;100670.72;4946176;28;20233;-56
2022/09/09 08:01:39;;;;;;;1.70;1.60;;;;;;;18.21;100.00;100666.88;4943358;28;20239;-56
2022/09/09 08:04:07;;;;;;;2.83;1.80;;;;;;;18.35;100.00;100671.72;4942989;28;20231;-56
2022/09/09 08:06:37;;;;;;;3.75;1.52;;;;;;;18.35;100.00;100667.28;4948165;28;20232;-56
2022/09/09 08:09:03;;;;;;;3.63;1.88;;;;;;;18.53;100.00;100670.22;4942392;28;20688;-57
2022/09/09 08:11:32;;;;;;;4.03;1.92;;;;;;;18.56;100.00;100678.09;4951196;28;20245;-56
2022/09/09 08:13:59;;;;;;;3.15;1.75;;;;;;;18.67;100.00;100675.06;4949255;28;20689;-57
2022/09/09 08:16:29;;;;;;;1.60;1.50;;;;;;;18.88;98.62;100687.59;4946434;28;20239;-57
2022/09/09 08:18:56;;;;;;;2.88;1.25;;;;;;;18.94;100.00;100687.41;4942913;28;20329;-56
2022/09/09 08:21:24;;;;;;;4.70;1.95;;;;;;;18.91;100.00;100687.50;4950799;28;20235;-57
2022/09/09 08:23:52;;;;;;;6.32;1.95;;;;;;;19.12;96.19;100690.31;4945155;28;20262;-56
2022/09/09 08:26:22;;;;;;;4.50;1.67;;;;;;;19.00;97.99;100684.53;4944565;28;20314;-56
2022/09/09 08:28:51;;;;;;;3.80;1.60;;;;;;;18.90;97.95;100685.78;4946834;28;20235;-56
2022/09/09 08:31:19;;;;;;;1.42;1.33;;;;;;;18.97;98.87;100678.44;4952282;28;20317;-57
2022/09/09 08:33:47;;;;;;;2.08;1.52;;;;;;;18.90;99.08;100680.47;4949545;28;20239;-57
2022/09/09 08:36:15;;;;;;;2.30;1.63;;;;;;;19.02;98.10;100680.03;4938778;28;20238;-57
2022/09/09 08:38:43;;;;;;;2.10;1.35;;;;;;;19.21;97.80;100689.97;4948537;28;20243;-57
2022/09/09 08:41:39;;;;;;;3.72;1.45;;;;;;;19.16;100.00;100686.59;4943083;28;20705;-57
2022/09/09 08:44:08;;;;;;;1.25;1.15;;;;;;;19.20;97.00;100693.53;4925244;28;20234;-58
2022/09/09 08:46:42;;;;;;;3.17;1.58;;;;;;;18.99;97.43;100690.78;4938669;28;20733;-56
2022/09/09 08:49:19;;;;;;;3.20;1.50;;;;;;;18.74;97.39;100689.91;4942613;28;20231;-57
2022/09/09 08:51:46;;;;;;;1.98;1.60;;;;;;;18.77;97.91;100690.66;4944890;28;20334;-57
2022/09/09 08:54:13;;;;;;;3.65;1.88;;;;;;;18.62;98.67;100690.31;4934737;28;20227;-59
2022/09/09 08:56:39;;;;;;;2.58;1.88;;;;;;;18.48;100.00;100683.69;4935984;28;20254;-58
2022/09/09 08:59:06;;;;;;;2.38;1.38;;;;;;;18.63;100.00;100692.91;4942399;28;20301;-57
2022/09/09 09:01:56;;;;;;;1.35;1.25;;;;;;;18.52;99.30;100695.06;4950589;28;20230;-54
2022/09/09 09:04:34;;;;;;;3.10;1.60;;;;;;;18.45;100.00;100691.75;4948091;28;20223;-58
2022/09/09 09:07:09;;;;;;;1.67;1.58;;;;;;;18.62;100.00;100696.50;4951854;28;20989;-57
2022/09/09 09:09:41;;;;;;;2.97;1.75;;;;;;;18.54;100.00;100696.75;4957840;28;20501;-57
2022/09/09 09:12:16;;;;;;;5.88;2.17;;;;;;;18.51;100.00;100688.91;4953602;28;20239;-59
2022/09/09 09:14:44;;;;;;;2.35;1.27;;;;;;;18.63;100.00;100689.38;4951723;28;20254;-57
2022/09/09 09:17:14;;;;;;;3.55;1.98;;;;;;;18.70;100.00;100693.56;4944730;28;20258;-56
2022/09/09 09:19:43;;;;;;;3.67;1.80;;;;;;;18.62;100.00;100695.63;4946588;28;20223;-57
2022/09/09 09:22:17;;;;;;;3.25;1.45;;;;;;;18.91;99.34;100698.16;4950889;28;20235;-55
2022/09/09 09:24:52;;;;;;;3.38;1.63;;;;;;;19.13;97.08;100700.03;4945683;28;20223;-57
2022/09/09 09:27:23;;;;;;;3.40;2.08;;;;;;;19.25;95.29;100694.25;4942800;28;20257;-59
2022/09/09 09:29:51;;;;;;;2.83;1.70;;;;;;;19.53;93.22;100700.25;4946806;28;20645;-56
2022/09/09 09:32:19;;;;;;;1.77;1.20;;;;;;;19.78;93.70;100692.22;4955449;28;20563;-56
2022/09/09 09:34:50;;;;;;;3.53;1.95;;;;;;;20.06;89.48;100695.56;4957523;28;20236;-57
2022/09/09 09:37:20;;;;;;;3.35;1.20;;;;;;;20.16;86.39;100695.13;4950799;28;20252;-57
2022/09/09 09:39:46;;;;;;;2.40;1.38;;;;;;;20.17;87.58;100694.19;4938657;28;20242;-57
2022/09/09 09:42:15;;;;;;;2.28;1.30;;;;;;;20.37;89.15;100704.03;4946329;28;20231;-57
2022/09/09 09:44:42;;;;;;;2.60;1.58;;;;;;;20.60;89.65;100699.53;4938468;28;20247;-55
2022/09/09 09:47:12;;;;;;;2.65;1.85;;;;;;;20.77;86.02;100694.31;4940923;28;20288;-57
2022/09/09 09:49:39;;;;;;;3.80;1.50;;;;;;;20.95;84.81;100692.66;4948296;28;20238;-65
2022/09/09 09:52:08;;;;;;;5.35;1.67;;;;;;;21.09;85.07;100695.56;4945978;28;20314;-58
2022/09/09 09:54:38;;;;;;;2.83;1.33;;;;;;;21.14;82.44;100692.69;4943956;28;20246;-59
2022/09/09 09:57:09;;;;;;;1.45;1.27;;;;;;;21.05;82.05;100693.09;4939587;28;20279;-58
2022/09/09 09:59:39;;;;;;;2.38;1.33;;;;;;;21.17;84.19;100689.91;4942061;28;20231;-61
2022/09/09 10:02:20;;;;;;;2.45;1.55;;;;;;;21.19;84.82;100688.00;4945448;28;20270;-60
2022/09/09 10:04:47;;;;;;;3.95;1.60;;;;;;;21.37;83.82;100692.53;4944252;28;20298;-58
2022/09/09 10:07:19;;;;;;;2.08;1.30;;;;;;;21.25;85.13;100690.41;4945167;28;20257;-57
2022/09/09 10:09:45;;;;;;;5.85;1.63;;;;;;;21.16;80.54;100697.00;4944086;28;20333;-59
2022/09/09 10:12:19;;;;;;;8.35;1.77;;;;;;;21.11;83.26;100693.69;4946217;28;20239;-58
2022/09/09 10:14:52;;;;;;;3.75;1.75;;;;;;;20.98;84.75;100690.69;4934226;28;20246;-58
2022/09/09 10:17:27;;;;;;;3.17;1.77;;;;;;;20.99;83.18;100694.25;4938544;28;20245;-58
2022/09/09 10:20:00;;;;;;;2.28;1.48;;;;;;;21.24;79.72;100698.50;4946552;28;20321;-57
2022/09/09 10:22:32;;;;;;;3.33;1.40;;;;;;;21.16;80.96;100691.66;4943333;28;20231;-56
2022/09/09 10:25:29;;;;;;;1.05;0.93;;;;;;;21.22;80.38;100690.53;4946163;28;20339;-58
2022/09/09 10:28:11;;;;;;;4.68;1.45;;;;;;;21.10;81.56;100691.09;4937162;28;20944;-56
2022/09/09 10:30:48;;;;;;;4.20;1.52;;;;;;;21.00;82.03;100695.13;4943069;28;20227;-57
2022/09/09 10:33:22;;;;;;;1.50;1.38;;;;;;;21.03;84.09;100695.84;4946290;28;20249;-58
2022/09/09 10:35:55;;;;;;;2.55;1.30;;;;;;;21.04;84.77;100702.06;4941043;28;20274;-59
2022/09/09 10:38:28;;;;;;;3.22;1.45;;;;;;;21.01;85.48;100696.84;4943225;28;20247;-57
2022/09/09 10:41:17;;;;;;;1.65;1.55;;;;;;;21.28;83.23;100700.94;4938156;28;23359;-59
2022/09/09 10:43:58;;;;;;;4.90;1.48;;;;;;;21.34;80.64;100699.81;4940688;28;20318;-59
2022/09/09 10:46:32;;;;;;;4.05;1.30;;;;;;;21.58;79.37;100697.81;4946170;28;20756;-59
2022/09/09 10:49:08;;;;;;;3.50;1.20;;;;;;;21.36;77.64;100701.47;4941384;28;20681;-60
2022/09/09 10:51:40;;;;;;;2.17;1.13;;;;;;;21.41;78.37;100702.16;4943917;28;20253;-59
2022/09/09 10:54:21;;;;;;;1.65;1.10;;;;;;;21.39;78.77;100701.34;4940776;28;20268;-59
2022/09/09 10:57:02;;;;;;;8.05;1.67;;;;;;;21.58;75.56;100703.16;4936297;28;20771;-60
2022/09/09 10:59:30;;;;;;;1.25;0.85;;;;;;;21.61;76.80;100703.88;4942405;28;20231;-57
2022/09/09 11:01:59;;;;;;;2.10;1.65;;;;;;;21.76;76.94;100702.28;4944989;28;20331;-57
2022/09/09 11:04:28;;;;;;;1.48;1.08;;;;;;;21.92;74.31;100703.25;4945841;28;20239;-57
2022/09/09 11:06:56;;;;;;;1.92;1.00;;;;;;;21.92;77.89;100703.25;4939360;28;20249;-59
2022/09/09 11:09:30;;;;;;;1.20;1.10;;;;;;;22.18;75.65;100698.47;4946154;28;20239;-59
2022/09/09 11:11:57;;;;;;;4.20;1.40;;;;;;;22.25;71.50;100701.69;4944111;28;20314;-58
2022/09/09 11:14:29;;;;;;;3.20;1.42;;;;;;;22.29;73.37;100692.56;4942451;28;20231;-58
2022/09/09 11:16:59;;;;;;;3.30;1.52;;;;;;;22.38;73.23;100694.81;4937956;28;20254;-57
2022/09/09 11:19:30;;;;;;;3.38;1.45;;;;;;;22.35;71.55;100702.97;4945875;28;20231;-59
2022/09/09 11:21:58;;;;;;;1.85;1.08;;;;;;;22.36;72.52;100700.25;4945376;28;20232;-57
2022/09/09 11:24:29;;;;;;;3.03;1.58;;;;;;;22.48;72.23;100695.22;4941798;28;20504;-57
2022/09/09 11:26:59;;;;;;;1.83;1.00;;;;;;;22.54;68.53;100697.56;4941125;28;20250;-57